Time;durP1;ratioP1;P1;durP2;ratioP2;P2;SDS_P1;SDS_P2;PMS_P1;PMS_P2;Temp;Humidity;BMP_temperature;BMP_pressure;BME280_temperature;BME280_humidity;BME280_pressure;Samples;Min_cycle;Max_cycle;Signal;HPM_P1;HPM_P2
2020/12/04 00:00:08;;;;;;;13.13;7.97;;;;;;;1.70;66.73;98534.31;5054221;28;20205;-71
2020/12/04 00:02:35;;;;;;;10.90;7.37;;;;;;;1.72;66.79;98524.56;5053670;28;20713;-70
2020/12/04 00:05:01;;;;;;;13.03;8.33;;;;;;;1.72;66.92;98505.34;5054333;28;20683;-71
2020/12/04 00:07:27;;;;;;;15.03;10.27;;;;;;;1.74;66.94;98513.97;5053604;28;20685;-73
2020/12/04 00:09:53;;;;;;;12.50;8.10;;;;;;;1.77;66.45;98515.56;5052536;28;20215;-71
2020/12/04 00:12:19;;;;;;;12.13;7.50;;;;;;;1.77;66.89;98511.16;5053258;28;20225;-72
2020/12/04 00:14:45;;;;;;;11.57;7.40;;;;;;;1.79;66.65;98505.81;5054661;28;20205;-71
2020/12/04 00:17:11;;;;;;;9.50;6.60;;;;;;;1.80;66.67;98489.94;5054676;28;20220;-73
2020/12/04 00:19:38;;;;;;;14.00;8.30;;;;;;;1.81;66.97;98485.56;5053952;28;20718;-71
2020/12/04 00:22:04;;;;;;;11.60;7.37;;;;;;;1.81;67.21;98490.78;5051027;28;20232;-70
2020/12/04 00:24:31;;;;;;;11.17;6.97;;;;;;;1.81;66.80;98489.00;5053694;28;20740;-72
2020/12/04 00:26:57;;;;;;;12.13;7.67;;;;;;;1.83;67.05;98486.31;5050689;28;20209;-73
2020/12/04 00:29:24;;;;;;;14.20;8.27;;;;;;;1.84;66.81;98478.34;5054412;28;20218;-71
2020/12/04 00:31:50;;;;;;;12.63;8.37;;;;;;;1.85;66.81;98482.66;5054354;28;20730;-71
2020/12/04 00:34:16;;;;;;;12.13;7.90;;;;;;;1.86;66.62;98473.00;5053365;28;20243;-72
2020/12/04 00:36:45;;;;;;;14.07;8.67;;;;;;;1.87;67.16;98477.31;5053943;28;20205;-70
2020/12/04 00:39:12;;;;;;;12.13;8.13;;;;;;;1.88;67.04;98476.38;5064847;28;20208;-70
2020/12/04 00:41:38;;;;;;;11.43;7.93;;;;;;;1.87;66.43;98465.03;5072353;28;20286;-72
2020/12/04 00:44:04;;;;;;;14.63;8.50;;;;;;;1.88;66.36;98463.25;5072435;28;20209;-71
2020/12/04 00:46:30;;;;;;;13.90;8.70;;;;;;;1.88;66.94;98466.72;5073037;28;20771;-70
2020/12/04 00:48:56;;;;;;;15.50;8.10;;;;;;;1.89;67.12;98465.78;5065212;28;20727;-69
2020/12/04 00:51:22;;;;;;;14.33;8.87;;;;;;;1.89;66.55;98452.66;5052830;28;20224;-71
2020/12/04 00:53:50;;;;;;;12.47;9.00;;;;;;;1.90;67.11;98454.34;5052172;28;20202;-70
2020/12/04 00:56:16;;;;;;;15.03;8.60;;;;;;;1.90;66.53;98443.84;5051582;28;20206;-70
2020/12/04 00:58:43;;;;;;;13.07;8.27;;;;;;;1.92;66.79;98441.13;5056429;28;20201;-70
2020/12/04 01:01:09;;;;;;;13.80;8.73;;;;;;;1.92;66.16;98428.84;5072911;28;20247;-71
2020/12/04 01:03:35;;;;;;;14.20;8.73;;;;;;;1.92;66.15;98428.84;5072357;28;20212;-71
2020/12/04 01:06:01;;;;;;;12.53;7.57;;;;;;;1.91;66.05;98416.66;5073540;28;20236;-71
2020/12/04 01:08:27;;;;;;;17.37;9.00;;;;;;;1.95;66.74;98423.41;5072106;28;20221;-69
2020/12/04 01:10:54;;;;;;;12.83;8.50;;;;;;;1.96;66.25;98424.25;5055153;28;20201;-70
2020/12/04 01:13:20;;;;;;;13.63;8.97;;;;;;;1.98;66.70;98424.97;5052197;28;20212;-71
2020/12/04 01:15:46;;;;;;;13.63;9.10;;;;;;;1.99;66.19;98424.88;5053243;28;20208;-70
2020/12/04 01:18:12;;;;;;;13.13;8.30;;;;;;;2.00;66.19;98421.31;5055161;28;20196;-71
2020/12/04 01:20:38;;;;;;;13.37;8.47;;;;;;;2.00;66.80;98417.84;5071422;28;20200;-70
2020/12/04 01:23:04;;;;;;;15.33;9.47;;;;;;;2.01;65.96;98420.38;5070965;28;20217;-71
2020/12/04 01:25:31;;;;;;;13.93;8.93;;;;;;;2.01;66.59;98417.75;5072419;28;20213;-70
2020/12/04 01:27:57;;;;;;;17.97;9.07;;;;;;;2.02;65.91;98418.59;5072469;28;20224;-70
2020/12/04 01:30:23;;;;;;;14.23;8.63;;;;;;;2.02;66.52;98408.91;5054313;28;20205;-70
2020/12/04 01:32:49;;;;;;;12.83;7.87;;;;;;;2.03;66.17;98409.75;5052377;28;20601;-71
2020/12/04 01:35:15;;;;;;;14.40;9.10;;;;;;;2.05;66.54;98415.75;5052956;28;20208;-70
2020/12/04 01:37:42;;;;;;;14.47;8.53;;;;;;;2.05;66.31;98411.34;5053010;28;20220;-69
2020/12/04 01:40:09;;;;;;;12.37;7.97;;;;;;;2.07;66.76;98406.00;5065060;28;20200;-71
2020/12/04 01:42:35;;;;;;;17.53;9.20;;;;;;;2.09;66.64;98398.88;5071328;28;20227;-70
2020/12/04 01:45:02;;;;;;;13.83;8.30;;;;;;;2.09;66.45;98394.47;5071445;28;20212;-70
2020/12/04 01:47:29;;;;;;;15.07;8.67;;;;;;;2.11;66.09;98401.41;5072571;28;20572;-71
2020/12/04 01:49:55;;;;;;;11.77;8.37;;;;;;;2.11;66.38;98397.00;5062376;28;20231;-71
2020/12/04 01:52:25;;;;;;;12.83;7.70;;;;;;;2.12;65.75;98396.06;5051659;28;20235;-70
2020/12/04 01:54:51;;;;;;;13.27;7.83;;;;;;;2.13;66.17;98389.88;5053315;28;20659;-71
2020/12/04 01:57:20;;;;;;;11.53;7.80;;;;;;;2.15;65.75;98389.78;5065969;28;20685;-72
2020/12/04 01:59:46;;;;;;;15.00;8.70;;;;;;;2.16;66.15;98389.63;5055047;28;20205;-70
2020/12/04 02:02:19;;;;;;;12.40;7.83;;;;;;;2.18;65.92;98382.50;5059940;28;20233;-70
2020/12/04 02:04:45;;;;;;;14.07;8.27;;;;;;;2.18;66.30;98376.41;5051484;28;20198;-71
2020/12/04 02:07:19;;;;;;;13.27;8.50;;;;;;;2.20;66.55;98378.00;5050955;28;20201;-69
2020/12/04 02:09:48;;;;;;;15.00;8.70;;;;;;;2.22;65.58;98373.50;5051985;28;20221;-70
2020/12/04 02:12:18;;;;;;;12.03;8.10;;;;;;;2.22;66.37;98373.50;5050876;28;20232;-69
2020/12/04 02:14:47;;;;;;;11.03;7.93;;;;;;;2.25;65.46;98361.94;5060626;28;20205;-72
2020/12/04 02:17:14;;;;;;;13.23;8.13;;;;;;;2.26;66.20;98359.22;5071494;28;20607;-70
2020/12/04 02:19:42;;;;;;;12.10;7.60;;;;;;;2.28;66.45;98353.88;5071307;28;20295;-69
2020/12/04 02:22:11;;;;;;;11.80;7.40;;;;;;;2.29;66.05;98352.94;5070519;28;20231;-71
2020/12/04 02:24:39;;;;;;;9.57;7.13;;;;;;;2.31;66.18;98348.44;5071609;28;20215;-71
2020/12/04 02:27:07;;;;;;;11.87;7.50;;;;;;;2.31;66.16;98346.66;5070809;28;20212;-71
2020/12/04 02:29:33;;;;;;;11.47;7.50;;;;;;;2.34;65.71;98346.41;5070849;28;20720;-71
2020/12/04 02:31:59;;;;;;;12.83;8.00;;;;;;;2.37;65.70;98342.75;5060998;28;20221;-71
2020/12/04 02:34:25;;;;;;;12.37;7.90;;;;;;;2.38;65.28;98337.38;5055015;28;20204;-71
2020/12/04 02:36:54;;;;;;;10.80;7.40;;;;;;;2.40;65.71;98318.91;5071165;28;20591;-70
2020/12/04 02:39:21;;;;;;;13.67;7.90;;;;;;;2.42;65.13;98323.13;5071732;28;20201;-70
2020/12/04 02:41:47;;;;;;;11.53;7.60;;;;;;;2.44;65.57;98315.97;5066176;28;20252;-70
2020/12/04 02:44:13;;;;;;;13.30;8.67;;;;;;;2.47;65.76;98314.09;5051820;28;20205;-71
2020/12/04 02:46:39;;;;;;;10.67;7.40;;;;;;;2.49;65.29;98313.06;5050312;28;20206;-71
2020/12/04 02:49:06;;;;;;;13.80;7.87;;;;;;;2.50;65.26;98303.38;5051619;28;20221;-72
2020/12/04 02:51:32;;;;;;;11.87;7.77;;;;;;;2.53;65.65;98304.00;5051764;28;20229;-69
2020/12/04 02:53:58;;;;;;;10.77;7.37;;;;;;;2.55;65.63;98301.25;5052436;28;20212;-70
2020/12/04 02:56:25;;;;;;;12.00;7.50;;;;;;;2.58;64.92;98295.81;5051269;28;20212;-71
2020/12/04 02:58:51;;;;;;;12.13;8.37;;;;;;;2.59;64.42;98293.06;5052230;28;20205;-70
2020/12/04 03:01:17;;;;;;;12.80;8.27;;;;;;;2.63;65.06;98301.59;5053126;28;20236;-70
2020/12/04 03:03:43;;;;;;;12.87;8.27;;;;;;;2.59;65.27;98306.22;5069119;28;20201;-71
2020/12/04 03:06:09;;;;;;;13.87;8.60;;;;;;;2.55;64.33;98304.72;5069447;28;20201;-71
2020/12/04 03:08:35;;;;;;;12.33;7.87;;;;;;;2.51;65.06;98305.06;5070164;28;20233;-72
2020/12/04 03:11:01;;;;;;;11.90;8.57;;;;;;;2.48;64.85;98306.09;5070504;28;20233;-71
2020/12/04 03:13:28;;;;;;;13.13;7.60;;;;;;;2.46;65.93;98310.63;5052658;28;20204;-72
2020/12/04 03:15:54;;;;;;;12.07;8.30;;;;;;;2.45;65.45;98311.56;5051775;28;20232;-70
2020/12/04 03:18:20;;;;;;;13.40;8.27;;;;;;;2.42;65.35;98307.34;5052097;28;20205;-70
2020/12/04 03:20:46;;;;;;;12.00;7.97;;;;;;;2.43;65.73;98301.16;5053751;28;20206;-71
2020/12/04 03:23:12;;;;;;;15.20;9.47;;;;;;;2.40;66.13;98319.75;5066645;28;20227;-71
2020/12/04 03:25:38;;;;;;;12.73;8.30;;;;;;;2.38;65.98;98310.28;5075115;28;20205;-70
2020/12/04 03:28:04;;;;;;;13.57;9.23;;;;;;;2.36;65.59;98312.16;5073845;28;20205;-71
2020/12/04 03:30:31;;;;;;;13.13;9.00;;;;;;;2.35;65.61;98305.22;5057592;28;20236;-71
2020/12/04 03:32:57;;;;;;;13.27;8.37;;;;;;;2.31;66.25;98296.75;5074969;28;20221;-70
2020/12/04 03:35:23;;;;;;;13.53;8.80;;;;;;;2.28;65.87;98289.06;5074803;28;20205;-70
2020/12/04 03:37:49;;;;;;;13.47;9.10;;;;;;;2.27;66.72;98281.28;5074591;28;20208;-70
2020/12/04 03:40:15;;;;;;;14.13;8.13;;;;;;;2.26;66.92;98272.56;5063803;28;20634;-71
2020/12/04 03:42:41;;;;;;;15.27;9.47;;;;;;;2.25;66.59;98265.63;5052907;28;20725;-70
2020/12/04 03:45:07;;;;;;;15.03;9.33;;;;;;;2.23;67.33;98262.25;5053915;28;20212;-70
2020/12/04 03:47:37;;;;;;;12.90;9.00;;;;;;;2.22;67.07;98270.25;5053597;28;20212;-71
2020/12/04 03:50:03;;;;;;;12.70;9.13;;;;;;;2.20;66.67;98261.63;5059204;28;20938;-71
2020/12/04 03:52:30;;;;;;;13.13;8.50;;;;;;;2.20;66.85;98259.00;5072777;28;20252;-71
2020/12/04 03:54:56;;;;;;;13.97;9.00;;;;;;;2.19;67.30;98262.56;5074107;28;20209;-71
2020/12/04 03:57:22;;;;;;;11.70;8.33;;;;;;;2.17;67.20;98252.16;5073182;28;20299;-71
2020/12/04 03:59:48;;;;;;;14.53;8.53;;;;;;;2.17;66.94;98253.94;5071703;28;20665;-71
2020/12/04 04:02:14;;;;;;;15.17;9.07;;;;;;;2.15;67.38;98246.16;5053669;28;20229;-71
2020/12/04 04:04:41;;;;;;;16.77;9.10;;;;;;;2.14;67.47;98249.75;5053461;28;20225;-70
2020/12/04 04:07:07;;;;;;;13.20;8.10;;;;;;;2.14;66.86;98254.19;5054031;28;20206;-70
2020/12/04 04:09:33;;;;;;;15.17;9.00;;;;;;;2.12;67.21;98243.78;5054085;28;20239;-70
2020/12/04 04:11:59;;;;;;;14.97;8.97;;;;;;;2.11;67.20;98249.13;5070128;28;20227;-70
2020/12/04 04:14:25;;;;;;;19.13;10.13;;;;;;;2.07;67.64;98246.69;5072805;28;20204;-71
2020/12/04 04:16:51;;;;;;;12.90;8.77;;;;;;;2.07;67.79;98248.47;5073305;28;20209;-71
2020/12/04 04:19:17;;;;;;;14.97;8.60;;;;;;;2.05;67.35;98243.34;5074067;28;20204;-70
2020/12/04 04:21:44;;;;;;;18.37;10.13;;;;;;;2.02;68.02;98240.91;5061913;28;20327;-71
2020/12/04 04:24:10;;;;;;;14.23;9.73;;;;;;;2.01;67.99;98236.59;5052948;28;20204;-71
2020/12/04 04:26:36;;;;;;;14.80;9.00;;;;;;;2.01;67.89;98236.59;5052843;28;20582;-71
2020/12/04 04:29:03;;;;;;;15.70;9.13;;;;;;;1.97;67.95;98229.88;5053349;28;20251;-70
2020/12/04 04:31:29;;;;;;;14.47;9.03;;;;;;;1.94;67.57;98224.84;5058930;28;20307;-69
2020/12/04 04:33:55;;;;;;;16.03;9.80;;;;;;;1.92;68.33;98224.09;5072286;28;20197;-70
2020/12/04 04:36:21;;;;;;;16.60;9.67;;;;;;;1.90;67.94;98215.50;5072921;28;20716;-71
2020/12/04 04:38:48;;;;;;;16.53;9.83;;;;;;;1.89;68.54;98219.06;5073977;28;20208;-70
2020/12/04 04:41:14;;;;;;;16.47;9.63;;;;;;;1.88;67.95;98209.50;5072147;28;20240;-69
2020/12/04 04:43:40;;;;;;;16.13;9.43;;;;;;;1.86;68.42;98200.88;5052511;28;20209;-70
2020/12/04 04:46:17;;;;;;;15.93;9.40;;;;;;;1.85;68.58;98208.84;5052458;28;20201;-70
2020/12/04 04:48:48;;;;;;;15.93;10.07;;;;;;;1.83;68.70;98200.25;5052356;28;20233;-69
2020/12/04 04:51:15;;;;;;;15.20;9.53;;;;;;;1.83;69.14;98198.44;5052641;28;20226;-70
2020/12/04 04:53:43;;;;;;;14.57;8.80;;;;;;;1.84;68.95;98201.91;5061321;28;20216;-70
2020/12/04 04:56:10;;;;;;;16.60;10.37;;;;;;;1.82;68.86;98204.66;5054291;28;20545;-70
2020/12/04 04:58:36;;;;;;;14.80;9.87;;;;;;;1.81;68.82;98200.34;5053068;28;20576;-72
2020/12/04 05:01:02;;;;;;;18.57;9.73;;;;;;;1.83;68.75;98203.69;5052533;28;20597;-71
2020/12/04 05:03:28;;;;;;;15.03;8.90;;;;;;;1.83;69.32;98193.22;5066116;28;20634;-70
2020/12/04 05:05:54;;;;;;;15.80;9.80;;;;;;;1.82;69.59;98190.69;5073632;28;20207;-70
2020/12/04 05:08:23;;;;;;;14.97;8.53;;;;;;;1.81;69.37;98196.88;5072597;28;20719;-69
2020/12/04 05:10:50;;;;;;;15.60;9.30;;;;;;;1.81;69.33;98199.50;5072849;28;20311;-70
2020/12/04 05:13:19;;;;;;;14.60;9.03;;;;;;;1.81;69.96;98202.97;5063613;28;20214;-70
2020/12/04 05:15:46;;;;;;;17.57;9.97;;;;;;;1.82;69.54;98198.56;5065087;28;20665;-70
2020/12/04 05:18:13;;;;;;;15.33;9.63;;;;;;;1.83;70.12;98202.88;5073583;28;20695;-70
2020/12/04 05:20:41;;;;;;;19.00;10.07;;;;;;;1.84;70.03;98199.28;5072705;28;20217;-71
2020/12/04 05:23:07;;;;;;;14.43;9.23;;;;;;;1.86;69.98;98193.00;5072960;28;20287;-70
2020/12/04 05:25:35;;;;;;;13.33;9.07;;;;;;;1.90;70.34;98191.88;5064515;28;20304;-70
2020/12/04 05:28:09;;;;;;;16.00;10.10;;;;;;;1.97;70.42;98195.75;5051550;28;20201;-70
2020/12/04 05:30:36;;;;;;;14.33;9.27;;;;;;;2.01;70.19;98191.97;5052660;28;20224;-71
2020/12/04 05:33:04;;;;;;;15.93;9.57;;;;;;;2.04;69.47;98202.28;5051317;28;20228;-71
2020/12/04 05:35:31;;;;;;;14.33;8.37;;;;;;;2.06;70.09;98196.91;5056703;28;20549;-70
2020/12/04 05:38:12;;;;;;;15.47;8.90;;;;;;;2.06;70.00;98189.88;5071595;28;20227;-68
2020/12/04 05:40:42;;;;;;;13.30;8.17;;;;;;;2.07;69.85;98191.56;5053297;28;20620;-69
2020/12/04 05:43:09;;;;;;;12.37;7.83;;;;;;;2.15;70.08;98192.84;5058001;23;20230;-67
2020/12/04 05:45:36;;;;;;;16.73;8.30;;;;;;;2.23;70.19;98180.84;5033332;28;20209;-67
2020/12/04 05:48:12;;;;;;;14.30;8.67;;;;;;;2.34;69.46;98166.97;5033309;28;20212;-67
2020/12/04 05:50:39;;;;;;;15.53;9.53;;;;;;;2.44;69.76;98173.28;5033483;28;20209;-67
2020/12/04 05:53:07;;;;;;;12.53;8.67;;;;;;;2.51;69.06;98161.38;5032427;28;20233;-67
2020/12/04 05:55:34;;;;;;;17.50;9.60;;;;;;;2.56;68.91;98167.16;5033209;28;20214;-67
2020/12/04 05:58:01;;;;;;;13.10;8.67;;;;;;;2.64;68.88;98170.09;5052246;28;20201;-67
2020/12/04 06:00:27;;;;;;;15.73;8.93;;;;;;;2.71;68.68;98173.13;5052587;28;20204;-67
2020/12/04 06:02:58;;;;;;;13.73;8.80;;;;;;;2.78;68.28;98177.84;5052593;28;20227;-67
2020/12/04 06:05:25;;;;;;;16.03;9.03;;;;;;;2.85;67.83;98191.41;5052452;28;20251;-67
2020/12/04 06:07:57;;;;;;;14.37;9.73;;;;;;;2.91;67.19;98192.72;5035856;28;20679;-67
2020/12/04 06:10:23;;;;;;;15.67;9.37;;;;;;;2.95;67.47;98178.44;5042683;28;20217;-66
2020/12/04 06:12:53;;;;;;;13.70;8.67;;;;;;;3.00;66.69;98186.84;5050196;28;20729;-66
2020/12/04 06:15:29;;;;;;;19.77;10.27;;;;;;;3.05;67.11;98185.53;5051981;28;20206;-67
2020/12/04 06:18:04;;;;;;;13.00;8.50;;;;;;;3.07;67.30;98181.00;5039420;28;20296;-67
2020/12/04 06:20:40;;;;;;;21.17;11.57;;;;;;;3.10;67.07;98172.91;5050357;28;20205;-67
2020/12/04 06:23:11;;;;;;;16.00;9.57;;;;;;;3.13;66.93;98177.94;5038748;28;20233;-67
2020/12/04 06:26:07;;;;;;;13.97;9.07;;;;;;;3.17;66.80;98182.97;5034044;28;20206;-67
2020/12/04 06:28:35;;;;;;;17.57;9.63;;;;;;;3.20;66.10;98177.50;4997391;28;20260;-67
2020/12/04 06:31:07;;;;;;;17.00;9.90;;;;;;;3.23;66.18;98180.72;5035239;28;20198;-67
2020/12/04 06:33:36;;;;;;;17.53;9.77;;;;;;;3.25;65.99;98181.47;5032606;28;20260;-67
2020/12/04 06:36:04;;;;;;;16.47;9.63;;;;;;;3.30;66.41;98183.75;5033009;28;20202;-67
2020/12/04 06:38:46;;;;;;;14.50;9.47;;;;;;;3.32;66.60;98184.50;5040544;28;20193;-67
2020/12/04 06:41:23;;;;;;;15.70;9.67;;;;;;;3.34;66.42;98177.34;5032387;28;20236;-67
2020/12/04 06:43:51;;;;;;;16.20;10.63;;;;;;;3.36;66.04;98184.16;5032630;28;20255;-67
2020/12/04 06:46:28;;;;;;;16.50;10.53;;;;;;;3.38;66.70;98184.91;5032628;28;20210;-68
2020/12/04 06:49:12;;;;;;;15.23;10.03;;;;;;;3.41;66.56;98189.06;5045245;28;20593;-67
2020/12/04 06:51:39;;;;;;;14.73;9.97;;;;;;;3.43;66.41;98190.63;5040567;28;20222;-68
2020/12/04 06:54:05;;;;;;;17.00;10.30;;;;;;;3.47;66.52;98193.88;5032703;28;20300;-67
2020/12/04 06:56:31;;;;;;;18.37;11.00;;;;;;;3.50;67.19;98191.03;5036184;28;20237;-67
2020/12/04 06:58:57;;;;;;;17.37;11.63;;;;;;;3.53;66.52;98195.25;5039910;28;20232;-68
2020/12/04 07:01:24;;;;;;;16.67;10.60;;;;;;;3.56;67.29;98197.66;5036333;28;20230;-67
2020/12/04 07:03:55;;;;;;;15.97;10.33;;;;;;;3.58;67.03;98190.50;5036407;28;20210;-67
2020/12/04 07:06:22;;;;;;;17.13;10.47;;;;;;;3.59;67.34;98189.50;5036765;28;20206;-67
2020/12/04 07:08:56;;;;;;;18.90;11.57;;;;;;;3.61;67.77;98196.34;5042856;28;20217;-67
2020/12/04 07:11:24;;;;;;;18.50;11.30;;;;;;;3.62;67.86;98199.81;5056287;28;20215;-67
2020/12/04 07:13:50;;;;;;;16.67;9.73;;;;;;;3.64;67.53;98190.00;5044484;28;20213;-67
2020/12/04 07:16:16;;;;;;;21.10;11.60;;;;;;;3.65;67.56;98196.97;5026972;28;20725;-67
2020/12/04 07:18:42;;;;;;;19.03;11.20;;;;;;;3.64;68.52;98197.91;5028764;28;20202;-67
2020/12/04 07:21:08;;;;;;;18.77;11.03;;;;;;;3.62;68.49;98203.28;5029617;28;20206;-67
2020/12/04 07:23:36;;;;;;;19.63;10.20;;;;;;;3.63;67.89;98185.69;5028273;28;20217;-67
2020/12/04 07:26:03;;;;;;;23.43;11.70;;;;;;;3.64;68.69;98197.91;5026149;28;20195;-67
2020/12/04 07:28:32;;;;;;;22.80;11.70;;;;;;;3.63;68.38;98196.22;5022901;28;20199;-67
2020/12/04 07:30:58;;;;;;;21.93;11.50;;;;;;;3.65;68.73;98191.69;5027203;28;20268;-67
2020/12/04 07:33:24;;;;;;;19.57;11.30;;;;;;;3.65;68.60;98192.53;5024873;28;20218;-67
2020/12/04 07:35:50;;;;;;;19.60;11.17;;;;;;;3.67;68.90;98197.69;5035694;28;20210;-67
2020/12/04 07:38:16;;;;;;;19.37;11.47;;;;;;;3.66;69.00;98196.00;5035781;28;20701;-67
2020/12/04 07:40:43;;;;;;;19.90;11.40;;;;;;;3.66;69.06;98196.84;5049691;28;20224;-67
2020/12/04 07:43:11;;;;;;;20.33;12.03;;;;;;;3.67;69.43;98201.16;5054959;28;20225;-67
2020/12/04 07:45:37;;;;;;;19.00;11.43;;;;;;;3.69;68.74;98201.06;5056070;28;20599;-67
2020/12/04 07:48:07;;;;;;;22.97;12.43;;;;;;;3.70;69.20;98192.19;5055705;28;20205;-67
2020/12/04 07:50:33;;;;;;;22.90;12.17;;;;;;;3.71;69.05;98188.63;5042814;28;20222;-67
2020/12/04 07:53:02;;;;;;;21.60;12.50;;;;;;;3.72;69.48;98191.13;5023537;28;20592;-67
2020/12/04 07:55:36;;;;;;;23.43;12.23;;;;;;;3.76;69.67;98202.28;5025795;28;20206;-67
2020/12/04 07:58:11;;;;;;;19.97;11.30;;;;;;;3.79;69.69;98202.88;5035292;28;20202;-67
2020/12/04 08:00:38;;;;;;;19.57;11.53;;;;;;;3.82;70.16;98189.47;5029008;28;20206;-67
2020/12/04 08:03:04;;;;;;;20.73;11.43;;;;;;;3.84;69.59;98192.84;5024834;28;20218;-67
2020/12/04 08:05:36;;;;;;;22.00;12.27;;;;;;;3.88;69.93;98204.00;5024542;28;20205;-67
2020/12/04 08:08:02;;;;;;;22.23;11.90;;;;;;;3.90;70.31;98198.63;5025975;28;20205;-67
2020/12/04 08:10:28;;;;;;;25.17;12.67;;;;;;;3.91;70.13;98198.50;5022180;28;20225;-67
2020/12/04 08:12:57;;;;;;;25.53;13.73;;;;;;;3.94;69.93;98208.78;5037018;28;20268;-67
2020/12/04 08:15:25;;;;;;;21.30;11.83;;;;;;;3.97;70.51;98219.09;5036813;28;20209;-68
2020/12/04 08:18:01;;;;;;;26.23;12.73;;;;;;;3.99;70.48;98201.38;5043319;28;20202;-67
2020/12/04 08:20:27;;;;;;;23.83;12.17;;;;;;;4.00;70.39;98199.59;5044022;28;20263;-67
2020/12/04 08:22:53;;;;;;;21.23;11.27;;;;;;;4.00;70.04;98195.16;5045522;28;20228;-67
2020/12/04 08:25:23;;;;;;;23.60;10.83;;;;;;;4.03;70.31;98207.25;5047049;28;20204;-67
2020/12/04 08:27:49;;;;;;;19.13;9.87;;;;;;;4.05;70.46;98211.47;5055345;28;20201;-67
2020/12/04 08:30:17;;;;;;;28.67;18.37;;;;;;;4.08;70.02;98207.75;5054872;28;20232;-67
2020/12/04 08:32:45;;;;;;;20.27;10.80;;;;;;;4.09;70.56;98198.91;5035544;28;20237;-68
2020/12/04 08:35:14;;;;;;;19.87;11.57;;;;;;;4.11;70.88;98218.06;5032471;28;20212;-68
2020/12/04 08:37:41;;;;;;;24.63;10.50;;;;;;;4.15;70.94;98214.22;5033862;28;20210;-67
2020/12/04 08:40:20;;;;;;;17.60;10.13;;;;;;;4.17;70.82;98213.16;5034618;28;20694;-68
2020/12/04 08:42:46;;;;;;;23.43;11.07;;;;;;;4.19;70.52;98221.78;5034330;28;20634;-67
2020/12/04 08:45:12;;;;;;;18.83;9.83;;;;;;;4.26;71.00;98231.88;5034988;28;20574;-67
2020/12/04 08:47:41;;;;;;;19.00;10.20;;;;;;;4.29;70.65;98232.47;5034930;28;20202;-67
2020/12/04 08:50:14;;;;;;;18.27;10.63;;;;;;;4.33;71.26;98236.53;5034828;28;20253;-67
2020/12/04 08:52:47;;;;;;;18.83;10.10;;;;;;;4.37;70.78;98237.16;5034359;28;20226;-67
2020/12/04 08:55:15;;;;;;;18.93;9.53;;;;;;;4.40;71.07;98245.66;5034881;28;20297;-67
2020/12/04 08:57:42;;;;;;;17.50;10.20;;;;;;;4.42;70.69;98235.84;5034651;28;20205;-67
2020/12/04 09:00:10;;;;;;;20.53;11.00;;;;;;;4.46;70.60;98245.22;5034461;28;20719;-67
2020/12/04 09:02:38;;;;;;;17.10;9.97;;;;;;;4.48;70.92;98247.69;5034022;28;20226;-67
2020/12/04 09:05:05;;;;;;;20.73;11.30;;;;;;;4.50;71.30;98253.69;5034551;28;20206;-67
2020/12/04 09:07:32;;;;;;;16.60;10.10;;;;;;;4.53;71.14;98249.03;5034430;28;20613;-67
2020/12/04 09:09:58;;;;;;;19.20;10.27;;;;;;;4.56;70.95;98252.41;5034312;28;20230;-67
2020/12/04 09:12:25;;;;;;;19.47;9.73;;;;;;;4.58;70.79;98256.59;5033811;28;20664;-67
2020/12/04 09:14:51;;;;;;;17.30;9.83;;;;;;;4.60;70.67;98259.97;5034539;28;20210;-66
2020/12/04 09:17:18;;;;;;;19.87;9.70;;;;;;;4.62;71.21;98259.84;5033600;28;20210;-67
2020/12/04 09:19:45;;;;;;;18.50;9.27;;;;;;;4.62;70.85;98265.94;5034281;28;20198;-67
2020/12/04 09:22:12;;;;;;;15.87;8.77;;;;;;;4.64;70.81;98264.03;5033761;28;20302;-67
2020/12/04 09:24:39;;;;;;;14.93;8.43;;;;;;;4.68;71.04;98281.28;5034054;28;20229;-67
2020/12/04 09:27:05;;;;;;;17.70;8.93;;;;;;;4.69;71.16;98272.41;5034086;28;20210;-67
2020/12/04 09:29:31;;;;;;;15.57;8.40;;;;;;;4.70;70.58;98274.09;5034103;28;20222;-67
2020/12/04 09:31:57;;;;;;;18.37;9.00;;;;;;;4.72;70.75;98274.81;5033452;28;20230;-66
2020/12/04 09:34:24;;;;;;;17.40;9.63;;;;;;;4.75;70.77;98290.41;5033686;28;20689;-67
2020/12/04 09:36:51;;;;;;;20.00;11.20;;;;;;;4.77;70.89;98292.94;5033464;28;20697;-67
2020/12/04 09:39:18;;;;;;;15.43;9.17;;;;;;;4.79;70.41;98294.50;5033531;28;20717;-66
2020/12/04 09:41:46;;;;;;;18.77;9.63;;;;;;;4.81;70.69;98299.66;5033036;28;20308;-67
2020/12/04 09:44:12;;;;;;;18.70;11.70;;;;;;;4.82;70.35;98301.34;5033852;28;20209;-67
2020/12/04 09:46:38;;;;;;;20.30;12.23;;;;;;;4.83;70.03;98300.38;5033599;28;20264;-67
2020/12/04 09:49:04;;;;;;;21.67;10.10;;;;;;;4.83;70.42;98303.84;5033481;28;20230;-67
2020/12/04 09:51:30;;;;;;;21.77;18.00;;;;;;;4.83;70.44;98308.28;5033050;28;20253;-66
2020/12/04 09:53:56;;;;;;;23.60;14.67;;;;;;;4.84;70.15;98308.16;5033732;28;20578;-67
2020/12/04 09:56:23;;;;;;;20.93;10.20;;;;;;;4.84;70.19;98296.75;5033487;28;20581;-67
2020/12/04 09:58:50;;;;;;;18.90;9.90;;;;;;;4.85;69.98;98304.53;5033593;28;20225;-67
2020/12/04 10:01:17;;;;;;;17.60;9.73;;;;;;;4.85;69.56;98299.28;5033345;28;20693;-67
2020/12/04 10:03:43;;;;;;;18.10;10.97;;;;;;;4.84;69.82;98297.59;5032971;28;20208;-67
2020/12/04 10:06:10;;;;;;;18.87;10.33;;;;;;;4.85;69.48;98299.28;5033263;28;20209;-67
2020/12/04 10:08:36;;;;;;;20.10;10.73;;;;;;;4.86;69.57;98293.03;5033213;28;20296;-67
2020/12/04 10:11:02;;;;;;;19.60;10.33;;;;;;;4.88;69.44;98292.94;5033107;28;20232;-67
2020/12/04 10:13:28;;;;;;;18.60;10.37;;;;;;;4.89;69.10;98284.91;5032895;28;20230;-67
2020/12/04 10:16:03;;;;;;;18.20;10.13;;;;;;;4.91;69.35;98283.94;5033214;28;20288;-67
2020/12/04 10:18:29;;;;;;;20.47;9.70;;;;;;;4.93;68.84;98279.38;5033085;28;20209;-67
2020/12/04 10:20:56;;;;;;;17.80;8.30;;;;;;;4.95;68.86;98265.13;5033125;28;20288;-66
2020/12/04 10:23:22;;;;;;;19.67;9.50;;;;;;;4.96;68.46;98263.34;5032655;28;20262;-67
2020/12/04 10:25:48;;;;;;;18.20;9.80;;;;;;;4.96;68.23;98261.53;5033154;28;20268;-67
2020/12/04 10:28:14;;;;;;;17.63;9.00;;;;;;;4.98;68.15;98256.13;5032832;28;20206;-67
2020/12/04 10:30:40;;;;;;;15.87;8.37;;;;;;;4.98;67.70;98256.97;5032988;28;20222;-67
2020/12/04 10:33:07;;;;;;;17.13;9.10;;;;;;;5.02;67.98;98247.84;5032528;28;20721;-67
2020/12/04 10:35:33;;;;;;;14.33;8.67;;;;;;;5.03;67.41;98252.16;5032920;28;20208;-66
2020/12/04 10:37:59;;;;;;;16.63;8.33;;;;;;;5.06;67.15;98264.28;5033039;28;20210;-66
2020/12/04 10:40:25;;;;;;;15.03;8.17;;;;;;;5.07;67.09;98260.69;5032892;28;20202;-66
2020/12/04 10:42:52;;;;;;;16.00;9.07;;;;;;;5.09;66.85;98270.16;5032529;28;20238;-67
2020/12/04 10:45:18;;;;;;;16.73;9.53;;;;;;;5.10;66.80;98261.28;5032907;28;20220;-67
2020/12/04 10:47:44;;;;;;;13.13;7.10;;;;;;;5.14;66.49;98261.88;5032883;28;20206;-67
2020/12/04 10:50:10;;;;;;;12.43;7.07;;;;;;;5.15;66.40;98253.00;5032898;28;20226;-67
2020/12/04 10:52:36;;;;;;;13.37;6.83;;;;;;;5.16;66.49;98254.69;5032643;28;20441;-67
2020/12/04 10:55:03;;;;;;;13.40;6.83;;;;;;;5.18;66.03;98252.78;5032791;28;20212;-67
2020/12/04 10:57:29;;;;;;;14.03;7.63;;;;;;;5.18;66.05;98258.06;5032879;28;20212;-67
2020/12/04 10:59:55;;;;;;;11.27;7.27;;;;;;;5.19;65.67;98255.28;5032727;28;20206;-67
2020/12/04 11:02:26;;;;;;;12.10;6.63;;;;;;;5.20;65.66;98261.38;5032321;28;20226;-66
2020/12/04 11:07:37;;;;;;;10.37;6.67;;;;;;;5.21;65.10;98263.06;5032570;28;20721;-66
2020/12/04 11:10:03;;;;;;;13.83;7.33;;;;;;;5.26;64.95;98274.09;5032537;28;20313;-67
2020/12/04 11:12:29;;;;;;;12.07;7.23;;;;;;;5.26;64.92;98268.81;5032220;28;20226;-67
2020/12/04 11:14:55;;;;;;;13.33;7.13;;;;;;;5.27;65.05;98257.31;5032375;28;20212;-67
2020/12/04 11:17:21;;;;;;;12.63;6.97;;;;;;;5.30;64.79;98264.97;5032941;28;20212;-66
2020/12/04 11:19:47;;;;;;;9.70;6.67;;;;;;;5.31;64.97;98260.53;5032473;28;20749;-67
2020/12/04 11:22:14;;;;;;;15.20;7.67;;;;;;;5.32;64.87;98275.41;5032321;28;20229;-67
2020/12/04 11:24:41;;;;;;;12.93;7.20;;;;;;;5.34;64.59;98266.41;5032494;28;20203;-67
2020/12/04 11:27:07;;;;;;;11.40;7.10;;;;;;;5.34;64.59;98268.22;5032470;28;20210;-67
2020/12/04 11:29:33;;;;;;;11.77;6.73;;;;;;;5.36;64.25;98282.97;5032172;28;20230;-67
2020/12/04 11:31:59;;;;;;;12.00;6.37;;;;;;;5.38;64.57;98288.94;5032288;28;20232;-67
2020/12/04 11:34:25;;;;;;;14.17;6.53;;;;;;;5.42;64.52;98279.81;5032485;28;20202;-67